createdAt,value
2022-12-24T00:01:39.051Z,31.58
2022-12-24T00:04:06.789Z,34.47
2022-12-24T00:06:33.946Z,35.10
2022-12-24T00:09:00.986Z,36.17
2022-12-24T00:11:28.037Z,36.40
2022-12-24T00:13:55.141Z,35.58
2022-12-24T00:16:22.298Z,34.88
2022-12-24T00:18:49.261Z,36.15
2022-12-24T00:21:16.792Z,37.40
2022-12-24T00:23:44.186Z,36.45
2022-12-24T00:26:12.028Z,34.50
2022-12-24T00:28:39.046Z,34.30
2022-12-24T00:31:15.743Z,31.48
2022-12-24T00:33:43.264Z,31.17
2022-12-24T00:36:10.683Z,26.58
2022-12-24T00:38:38.373Z,25.30
2022-12-24T00:41:25.129Z,21.90
2022-12-24T00:43:58.355Z,24.85
2022-12-24T00:46:26.819Z,20.80
2022-12-24T00:48:54.411Z,22.50
2022-12-24T00:51:22.276Z,21.90
2022-12-24T00:53:49.907Z,20.30
2022-12-24T00:56:17.663Z,20.63
2022-12-24T00:58:44.858Z,22.40
2022-12-24T01:01:12.392Z,20.90
2022-12-24T01:03:39.742Z,20.30
2022-12-24T01:06:12.701Z,21.85
2022-12-24T01:08:40.477Z,23.13
2022-12-24T01:11:09.101Z,22.10
2022-12-24T01:13:36.279Z,19.67
2022-12-24T01:16:04.148Z,19.50
2022-12-24T01:18:31.125Z,18.93
2022-12-24T01:21:03.647Z,18.20
2022-12-24T01:23:31.320Z,15.73
2022-12-24T01:26:05.254Z,12.20
2022-12-24T01:28:32.703Z,12.53
2022-12-24T01:30:59.808Z,12.57
2022-12-24T01:33:30.453Z,11.93
2022-12-24T01:35:57.506Z,11.47
2022-12-24T01:38:24.462Z,10.83
2022-12-24T01:41:10.172Z,9.70
2022-12-24T01:43:37.258Z,10.30
2022-12-24T01:46:25.422Z,9.57
2022-12-24T01:49:02.674Z,8.20
2022-12-24T01:51:36.434Z,7.53
2022-12-24T01:54:38.780Z,7.50
2022-12-24T01:57:10.951Z,7.97
2022-12-24T01:59:40.401Z,8.57
2022-12-24T02:02:07.705Z,7.90
2022-12-24T02:05:01.486Z,7.83
2022-12-24T02:07:28.774Z,7.17
2022-12-24T02:09:59.215Z,7.53
2022-12-24T02:12:29.121Z,7.50
2022-12-24T02:14:57.034Z,7.20
2022-12-24T02:17:31.710Z,6.88
2022-12-24T02:20:32.031Z,6.80
2022-12-24T02:23:17.326Z,7.95
2022-12-24T02:26:04.772Z,6.87
2022-12-24T02:28:52.869Z,8.02
2022-12-24T02:31:29.283Z,9.70
2022-12-24T02:34:06.491Z,8.10
2022-12-24T02:36:55.907Z,6.65
2022-12-24T02:39:33.913Z,8.80
2022-12-24T02:42:08.744Z,16.85
2022-12-24T02:44:47.705Z,7.13
2022-12-24T02:47:17.025Z,6.32
2022-12-24T02:49:46.157Z,7.60
2022-12-24T02:52:31.288Z,7.00
2022-12-24T02:55:01.865Z,6.93
2022-12-24T02:57:32.966Z,7.03
2022-12-24T03:00:05.966Z,7.32
2022-12-24T03:02:53.037Z,6.43
2022-12-24T03:05:41.771Z,6.53
2022-12-24T03:08:39.806Z,7.00
2022-12-24T03:11:11.049Z,12.48
2022-12-24T03:13:38.493Z,8.55
2022-12-24T03:16:09.429Z,9.68
2022-12-24T03:18:39.276Z,8.50
2022-12-24T03:21:10.851Z,14.02
2022-12-24T03:23:38.215Z,15.43
2022-12-24T03:26:09.179Z,15.40
2022-12-24T03:28:40.669Z,15.43
2022-12-24T03:31:09.190Z,16.83
2022-12-24T03:33:36.548Z,12.98
2022-12-24T03:36:04.903Z,15.40
2022-12-24T03:38:32.243Z,17.95
2022-12-24T03:40:59.386Z,17.27
2022-12-24T03:43:26.539Z,18.20
2022-12-24T03:45:53.670Z,17.98
2022-12-24T03:48:20.873Z,18.63
2022-12-24T03:50:47.852Z,18.60
2022-12-24T03:53:14.775Z,20.23
2022-12-24T03:55:41.878Z,22.58
2022-12-24T03:58:08.870Z,26.70
2022-12-24T04:00:35.926Z,27.42
2022-12-24T04:03:02.927Z,24.73
2022-12-24T04:05:29.964Z,25.05
2022-12-24T04:07:57.038Z,26.02
2022-12-24T04:10:24.047Z,26.37
2022-12-24T04:12:51.059Z,26.57
2022-12-24T04:15:18.074Z,27.73
2022-12-24T04:17:45.058Z,33.50
2022-12-24T04:20:12.641Z,31.73
2022-12-24T04:22:39.708Z,32.77
2022-12-24T04:25:07.431Z,34.33
2022-12-24T04:27:34.501Z,39.33
2022-12-24T04:30:01.462Z,41.27
2022-12-24T04:32:28.848Z,47.33
2022-12-24T04:34:56.142Z,43.00
2022-12-24T04:37:23.135Z,44.13
2022-12-24T04:39:50.085Z,45.73
2022-12-24T04:42:17.103Z,45.80
2022-12-24T04:44:44.125Z,38.43
2022-12-24T04:47:11.159Z,37.70
2022-12-24T04:49:38.211Z,54.07
2022-12-24T04:52:05.455Z,36.33
2022-12-24T04:54:32.572Z,36.20
2022-12-24T04:56:59.598Z,44.03
2022-12-24T04:59:26.511Z,42.57
2022-12-24T05:01:53.769Z,55.17
2022-12-24T05:04:21.019Z,42.70
2022-12-24T05:06:48.066Z,47.87
2022-12-24T05:09:15.005Z,51.77
2022-12-24T05:11:42.032Z,41.70
2022-12-24T05:14:09.047Z,41.40
2022-12-24T05:16:36.208Z,35.63
2022-12-24T05:19:03.201Z,35.83
2022-12-24T05:21:30.194Z,33.57
2022-12-24T05:24:15.923Z,32.03
2022-12-24T05:26:53.395Z,29.07
2022-12-24T05:29:21.249Z,30.90
2022-12-24T05:31:48.532Z,28.90
2022-12-24T05:34:17.004Z,26.03
2022-12-24T05:36:44.731Z,26.17
2022-12-24T05:39:16.389Z,24.67
2022-12-24T05:41:44.178Z,25.73
2022-12-24T05:44:11.197Z,24.70
2022-12-24T05:46:38.240Z,24.77
2022-12-24T05:49:05.315Z,24.90
2022-12-24T05:51:32.255Z,23.60
2022-12-24T05:53:59.374Z,24.73
2022-12-24T05:56:26.368Z,24.63
2022-12-24T05:58:54.845Z,25.10
2022-12-24T06:01:23.270Z,24.73
2022-12-24T06:03:50.908Z,25.57
2022-12-24T06:06:23.676Z,27.03
2022-12-24T06:08:51.896Z,26.87
2022-12-24T06:11:21.654Z,26.00
2022-12-24T06:13:48.763Z,26.60
2022-12-24T06:16:18.702Z,27.90
2022-12-24T06:18:46.324Z,26.77
2022-12-24T06:21:13.948Z,28.13
2022-12-24T06:23:42.958Z,31.93
2022-12-24T06:26:13.219Z,31.73
2022-12-24T06:28:40.191Z,31.20
2022-12-24T06:31:10.905Z,32.43
2022-12-24T06:33:37.931Z,32.47
2022-12-24T06:36:15.125Z,32.53
2022-12-24T06:38:44.239Z,32.63
2022-12-24T06:41:11.189Z,33.75
2022-12-24T06:43:38.311Z,34.05
2022-12-24T06:46:05.769Z,33.33
2022-12-24T06:48:32.956Z,32.80
2022-12-24T06:51:03.010Z,32.83
2022-12-24T06:53:30.713Z,32.63
2022-12-24T06:56:09.232Z,31.15
2022-12-24T06:58:36.840Z,32.67
2022-12-24T07:01:07.489Z,31.70
2022-12-24T07:03:35.039Z,33.33
2022-12-24T07:06:02.277Z,32.37
2022-12-24T07:08:29.562Z,33.28
2022-12-24T07:10:56.621Z,33.25
2022-12-24T07:13:23.729Z,31.88
2022-12-24T07:16:01.823Z,32.20
2022-12-24T07:18:29.322Z,32.70
2022-12-24T07:20:56.455Z,32.10
2022-12-24T07:23:23.555Z,30.98
2022-12-24T07:25:50.628Z,31.50
2022-12-24T07:28:22.313Z,30.95
2022-12-24T07:30:52.743Z,31.33
2022-12-24T07:33:19.791Z,32.38
2022-12-24T07:35:50.799Z,33.58
2022-12-24T07:38:21.060Z,30.60
2022-12-24T07:40:48.931Z,31.58
2022-12-24T07:43:16.019Z,30.02
2022-12-24T07:45:43.213Z,29.50
2022-12-24T07:48:10.225Z,28.50
2022-12-24T07:50:37.151Z,26.73
2022-12-24T07:53:04.100Z,26.73
2022-12-24T07:55:31.128Z,25.48
2022-12-24T07:57:58.171Z,25.48
2022-12-24T08:00:25.137Z,25.58
2022-12-24T08:02:52.322Z,26.17
2022-12-24T08:05:19.367Z,27.67
2022-12-24T08:07:46.459Z,26.88
2022-12-24T08:10:13.451Z,27.58
2022-12-24T08:12:40.379Z,28.35
2022-12-24T08:15:07.936Z,28.02
2022-12-24T08:17:34.988Z,26.67
2022-12-24T08:20:02.250Z,24.92
2022-12-24T08:22:29.261Z,24.38
2022-12-24T08:24:56.356Z,23.95
2022-12-24T08:27:23.345Z,23.67
2022-12-24T08:29:50.308Z,23.30
2022-12-24T08:32:17.937Z,21.38
2022-12-24T08:34:45.123Z,22.85
2022-12-24T08:37:12.236Z,19.83
2022-12-24T08:39:39.173Z,19.17
2022-12-24T08:42:06.322Z,18.70
2022-12-24T08:44:33.364Z,17.33
2022-12-24T08:47:00.482Z,16.17
2022-12-24T08:49:27.531Z,15.30
2022-12-24T08:51:54.674Z,13.38
2022-12-24T08:54:22.601Z,14.05
2022-12-24T08:56:49.844Z,12.50
2022-12-24T08:59:17.008Z,12.63
2022-12-24T09:01:44.355Z,12.93
2022-12-24T09:04:11.513Z,11.80
2022-12-24T09:06:38.678Z,11.18
2022-12-24T09:09:08.718Z,9.73
2022-12-24T09:11:36.134Z,8.75
2022-12-24T09:14:03.356Z,8.30
2022-12-24T09:16:30.418Z,7.93
2022-12-24T09:18:58.527Z,8.10
2022-12-24T09:21:25.571Z,7.68
2022-12-24T09:23:52.866Z,7.15
2022-12-24T09:26:25.737Z,7.80
2022-12-24T09:28:53.758Z,7.82
2022-12-24T09:31:21.983Z,8.05
2022-12-24T09:33:51.050Z,8.20
2022-12-24T09:36:18.727Z,7.85
2022-12-24T09:38:46.124Z,8.15
2022-12-24T09:41:35.200Z,7.80
2022-12-24T09:44:20.435Z,7.55
2022-12-24T09:46:49.848Z,6.90
2022-12-24T09:49:24.897Z,6.13
2022-12-24T09:52:02.141Z,5.88
2022-12-24T09:54:34.909Z,5.38
2022-12-24T09:57:07.696Z,5.38
2022-12-24T09:59:44.022Z,5.32
2022-12-24T10:02:17.496Z,4.65
2022-12-24T10:04:46.273Z,4.55
2022-12-24T10:07:51.940Z,4.63
2022-12-24T10:10:24.660Z,4.82
2022-12-24T10:13:35.753Z,5.20
2022-12-24T10:16:26.810Z,4.65
2022-12-24T10:19:09.808Z,4.70
2022-12-24T10:21:45.635Z,4.57
2022-12-24T10:24:42.364Z,4.70
2022-12-24T10:27:15.172Z,4.43
2022-12-24T10:29:55.298Z,4.57
2022-12-24T10:32:28.951Z,5.20
2022-12-24T10:34:59.850Z,4.35
2022-12-24T10:37:29.213Z,4.53
2022-12-24T10:39:58.263Z,4.63
2022-12-24T10:42:35.992Z,4.40
2022-12-24T10:45:06.544Z,5.03
2022-12-24T10:47:38.123Z,5.15
2022-12-24T10:50:11.338Z,4.55
2022-12-24T10:52:42.072Z,4.30
2022-12-24T10:55:24.272Z,5.05
2022-12-24T10:58:05.587Z,4.35
2022-12-24T11:00:36.225Z,4.35
2022-12-24T11:03:12.984Z,4.47
2022-12-24T11:05:40.616Z,5.07
2022-12-24T11:08:17.625Z,4.88
2022-12-24T11:11:16.738Z,4.25
2022-12-24T11:13:57.510Z,4.47
2022-12-24T11:16:32.183Z,4.63
2022-12-24T11:19:02.387Z,4.25
2022-12-24T11:21:32.492Z,4.70
2022-12-24T11:24:21.692Z,5.22
2022-12-24T11:26:48.724Z,5.85
2022-12-24T11:29:22.076Z,4.80
2022-12-24T11:31:50.710Z,5.25
2022-12-24T11:34:43.237Z,5.32
2022-12-24T11:37:20.479Z,4.97
2022-12-24T11:39:56.370Z,4.93
2022-12-24T11:42:38.670Z,4.75
2022-12-24T11:45:24.691Z,5.40
2022-12-24T11:47:53.833Z,4.82
2022-12-24T11:50:20.890Z,5.30
2022-12-24T11:52:55.266Z,5.20
2022-12-24T11:55:34.057Z,5.30
2022-12-24T11:58:27.525Z,4.82
2022-12-24T12:01:15.265Z,6.03
2022-12-24T12:03:49.748Z,6.68
2022-12-24T12:06:32.739Z,6.90
2022-12-24T12:09:31.554Z,6.20
2022-12-24T12:12:09.613Z,6.28
2022-12-24T12:14:51.440Z,7.18
2022-12-24T12:17:27.358Z,7.00
2022-12-24T12:19:58.007Z,7.13
2022-12-24T12:22:29.229Z,8.27
2022-12-24T12:24:58.199Z,7.30
2022-12-24T12:27:44.294Z,7.50
2022-12-24T12:30:20.553Z,7.53
2022-12-24T12:33:02.862Z,7.65
2022-12-24T12:35:34.740Z,8.55
2022-12-24T12:38:06.919Z,8.70
2022-12-24T12:40:48.973Z,8.10
2022-12-24T12:43:39.559Z,7.40
2022-12-24T12:46:26.737Z,8.27
2022-12-24T12:49:02.745Z,8.05
2022-12-24T12:51:58.927Z,8.95
2022-12-24T12:54:36.461Z,9.00
2022-12-24T12:57:08.989Z,10.00
2022-12-24T12:59:42.538Z,8.55
2022-12-24T13:02:43.168Z,9.63
2022-12-24T13:05:10.342Z,7.85
2022-12-24T13:08:06.240Z,8.90
2022-12-24T13:10:47.701Z,8.90
2022-12-24T13:13:35.564Z,9.18
2022-12-24T13:16:39.819Z,10.05
2022-12-24T13:19:37.609Z,9.95
2022-12-24T13:22:05.969Z,9.68
2022-12-24T13:24:33.699Z,9.43
2022-12-24T13:27:18.727Z,10.75
2022-12-24T13:30:02.196Z,10.77
2022-12-24T13:32:34.041Z,9.55
2022-12-24T13:35:04.564Z,11.80
2022-12-24T13:37:32.338Z,12.30
2022-12-24T13:40:08.692Z,12.50
2022-12-24T13:43:04.731Z,12.20
2022-12-24T13:45:31.751Z,12.68
2022-12-24T13:48:14.702Z,13.18
2022-12-24T13:50:49.287Z,12.70
2022-12-24T13:53:28.397Z,13.27
2022-12-24T13:56:01.112Z,13.63
2022-12-24T13:58:28.337Z,14.55
2022-12-24T14:01:00.619Z,14.45
2022-12-24T14:03:41.939Z,14.98
2022-12-24T14:06:23.298Z,15.55
2022-12-24T14:08:54.257Z,15.90
2022-12-24T14:11:25.517Z,16.73
2022-12-24T14:13:54.060Z,16.02
2022-12-24T14:16:24.139Z,17.92
2022-12-24T14:18:59.436Z,18.63
2022-12-24T14:21:31.336Z,20.55
2022-12-24T14:24:00.384Z,22.25
2022-12-24T14:26:56.166Z,27.65
2022-12-24T14:29:31.251Z,31.10
2022-12-24T14:32:00.036Z,29.27
2022-12-24T14:34:27.929Z,31.05
2022-12-24T14:36:56.312Z,29.25
2022-12-24T14:39:29.569Z,29.60
2022-12-24T14:42:22.778Z,27.40
2022-12-24T14:45:04.412Z,22.92
2022-12-24T14:47:49.207Z,22.15
2022-12-24T14:50:16.206Z,20.55
2022-12-24T14:53:09.458Z,19.05
2022-12-24T14:55:45.655Z,18.98
2022-12-24T14:58:19.862Z,20.27
2022-12-24T15:00:47.096Z,20.63
2022-12-24T15:03:16.357Z,20.02
2022-12-24T15:05:44.725Z,19.98
2022-12-24T15:08:18.408Z,20.33
2022-12-24T15:10:50.488Z,19.90
2022-12-24T15:13:38.013Z,19.15
2022-12-24T15:16:11.401Z,18.67
2022-12-24T15:18:48.457Z,19.70
2022-12-24T15:21:22.704Z,19.95
2022-12-24T15:23:52.205Z,21.73
2022-12-24T15:26:30.039Z,22.83
2022-12-24T15:29:03.320Z,22.38
2022-12-24T15:31:31.880Z,24.60
2022-12-24T15:33:59.848Z,23.55
2022-12-24T15:36:34.623Z,24.98
2022-12-24T15:39:06.258Z,24.50
2022-12-24T15:42:02.765Z,23.88
2022-12-24T15:44:35.253Z,22.20
2022-12-24T15:47:05.181Z,23.63
2022-12-24T15:49:33.713Z,22.27
2022-12-24T15:52:08.319Z,24.67
2022-12-24T15:54:36.144Z,22.58
2022-12-24T15:57:23.876Z,21.75
2022-12-24T15:59:59.581Z,22.27
2022-12-24T16:02:43.364Z,22.23
2022-12-24T16:05:29.695Z,21.73
2022-12-24T16:08:07.758Z,20.48
2022-12-24T16:10:39.661Z,19.17
2022-12-24T16:13:18.245Z,19.25
2022-12-24T16:16:01.466Z,18.25
2022-12-24T16:18:32.417Z,18.27
2022-12-24T16:20:59.782Z,17.63
2022-12-24T16:23:34.485Z,19.48
2022-12-24T16:26:01.494Z,18.30
2022-12-24T16:28:28.592Z,18.65
2022-12-24T16:30:56.708Z,17.08
2022-12-24T16:33:24.252Z,16.52
2022-12-24T16:35:51.511Z,16.13
2022-12-24T16:38:18.445Z,15.55
2022-12-24T16:40:45.579Z,15.93
2022-12-24T16:43:31.883Z,15.32
2022-12-24T16:46:04.899Z,14.88
2022-12-24T16:48:36.349Z,15.40
2022-12-24T16:51:03.792Z,15.35
2022-12-24T16:53:30.751Z,14.95
2022-12-24T16:55:58.296Z,14.10
2022-12-24T16:58:25.390Z,14.85
2022-12-24T17:00:53.596Z,14.20
2022-12-24T17:03:20.799Z,14.82
2022-12-24T17:05:47.976Z,14.50
2022-12-24T17:08:15.313Z,14.30
2022-12-24T17:10:50.330Z,14.48
2022-12-24T17:13:17.515Z,14.43
2022-12-24T17:15:44.500Z,15.05
2022-12-24T17:18:11.485Z,14.48
2022-12-24T17:20:38.413Z,14.68
2022-12-24T17:23:09.524Z,15.07
2022-12-24T17:25:36.807Z,15.02
2022-12-24T17:28:03.892Z,14.70
2022-12-24T17:30:30.889Z,14.90
2022-12-24T17:32:57.829Z,14.50
2022-12-24T17:35:24.945Z,14.68
2022-12-24T17:37:52.007Z,15.82
2022-12-24T17:40:19.067Z,15.07
2022-12-24T17:42:46.078Z,16.45
2022-12-24T17:45:13.095Z,15.65
2022-12-24T17:47:40.110Z,15.02
2022-12-24T17:50:07.911Z,15.43
2022-12-24T17:52:34.942Z,14.93
2022-12-24T17:55:01.909Z,15.20
2022-12-24T17:57:28.964Z,15.35
2022-12-24T17:59:57.373Z,15.70
2022-12-24T18:02:24.679Z,16.42
2022-12-24T18:04:51.818Z,16.70
2022-12-24T18:07:18.781Z,17.25
2022-12-24T18:09:46.158Z,17.52
2022-12-24T18:12:14.074Z,16.88
2022-12-24T18:14:41.046Z,17.40
2022-12-24T18:17:08.055Z,17.13
2022-12-24T18:19:35.168Z,17.52
2022-12-24T18:22:02.200Z,15.93
2022-12-24T18:24:29.228Z,14.93
2022-12-24T18:26:56.711Z,16.10
2022-12-24T18:29:23.777Z,16.75
2022-12-24T18:31:51.255Z,16.25
2022-12-24T18:34:18.431Z,17.88
2022-12-24T18:36:49.635Z,17.67
2022-12-24T18:39:20.386Z,19.08
2022-12-24T18:41:47.683Z,19.55
2022-12-24T18:44:18.083Z,21.42
2022-12-24T18:46:47.906Z,19.20
2022-12-24T18:49:14.932Z,19.55
2022-12-24T18:51:41.869Z,19.00
2022-12-24T18:54:08.880Z,18.08
2022-12-24T18:56:35.824Z,16.60
2022-12-24T18:59:03.545Z,14.57
2022-12-24T19:01:34.936Z,14.63
2022-12-24T19:04:03.002Z,14.18
2022-12-24T19:06:30.428Z,13.85
2022-12-24T19:08:59.753Z,14.18
2022-12-24T19:11:30.386Z,13.98
2022-12-24T19:13:58.606Z,13.80
2022-12-24T19:16:26.491Z,13.73
2022-12-24T19:18:53.774Z,13.48
2022-12-24T19:21:20.802Z,12.80
2022-12-24T19:23:48.269Z,12.95
2022-12-24T19:26:16.762Z,11.57
2022-12-24T19:28:44.563Z,11.48
2022-12-24T19:31:14.425Z,11.60
2022-12-24T19:33:44.088Z,10.63
2022-12-24T19:36:15.121Z,11.00
2022-12-24T19:38:42.631Z,10.15
2022-12-24T19:41:16.142Z,10.82
2022-12-24T19:43:45.357Z,11.75
2022-12-24T19:46:14.717Z,13.02
2022-12-24T19:48:42.142Z,14.30
2022-12-24T19:51:12.344Z,15.48
2022-12-24T19:53:40.069Z,16.30
2022-12-24T19:56:08.737Z,16.67
2022-12-24T19:58:36.239Z,16.45
2022-12-24T20:01:12.697Z,16.20
2022-12-24T20:03:42.117Z,16.77
2022-12-24T20:06:09.191Z,17.30
2022-12-24T20:08:37.639Z,17.67
2022-12-24T20:11:06.674Z,22.90
2022-12-24T20:13:34.866Z,20.42
2022-12-24T20:16:13.965Z,18.27
2022-12-24T20:18:41.486Z,18.25
2022-12-24T20:21:11.442Z,18.77
2022-12-24T20:23:42.120Z,17.95
2022-12-24T20:26:13.054Z,18.92
2022-12-24T20:28:41.508Z,18.52
2022-12-24T20:31:14.891Z,17.85
2022-12-24T20:33:43.071Z,19.45
2022-12-24T20:36:11.168Z,20.45
2022-12-24T20:38:38.751Z,21.60
2022-12-24T20:41:06.515Z,21.98
2022-12-24T20:43:36.297Z,22.45
2022-12-24T20:46:04.944Z,22.80
2022-12-24T20:48:32.160Z,22.45
2022-12-24T20:50:59.543Z,23.33
2022-12-24T20:53:27.022Z,22.42
2022-12-24T20:55:54.159Z,22.08
2022-12-24T20:58:21.213Z,23.90
2022-12-24T21:00:49.706Z,23.05
2022-12-24T21:03:18.151Z,23.17
2022-12-24T21:05:45.512Z,22.85
2022-12-24T21:08:13.658Z,22.17
2022-12-24T21:10:41.030Z,20.75
2022-12-24T21:13:08.316Z,20.98
2022-12-24T21:15:39.547Z,20.27
2022-12-24T21:18:11.931Z,19.60
2022-12-24T21:20:41.154Z,20.80
2022-12-24T21:23:08.395Z,21.60
2022-12-24T21:25:35.990Z,22.17
2022-12-24T21:28:02.974Z,20.98
2022-12-24T21:30:30.154Z,18.48
2022-12-24T21:32:57.171Z,16.88
2022-12-24T21:35:24.361Z,17.60
2022-12-24T21:37:51.446Z,16.45
2022-12-24T21:40:18.532Z,16.85
2022-12-24T21:42:45.533Z,17.50
2022-12-24T21:45:12.620Z,18.90
2022-12-24T21:47:39.636Z,18.40
2022-12-24T21:50:31.703Z,18.17
2022-12-24T21:53:19.764Z,18.00
2022-12-24T21:55:46.770Z,16.95
2022-12-24T21:58:13.755Z,18.10
2022-12-24T22:00:40.857Z,19.35
2022-12-24T22:03:07.827Z,20.10
2022-12-24T22:05:35.581Z,19.17
2022-12-24T22:08:21.075Z,20.30
2022-12-24T22:11:06.824Z,18.83
2022-12-24T22:13:33.905Z,20.55
2022-12-24T22:16:00.945Z,21.05
2022-12-24T22:18:27.882Z,21.33
2022-12-24T22:20:55.944Z,22.40
2022-12-24T22:23:23.044Z,22.15
2022-12-24T22:25:50.024Z,23.10
2022-12-24T22:28:17.143Z,23.33
2022-12-24T22:30:44.205Z,23.20
2022-12-24T22:33:11.656Z,23.10
2022-12-24T22:35:39.984Z,23.63
2022-12-24T22:38:09.210Z,24.63
2022-12-24T22:40:38.669Z,22.60
2022-12-24T22:43:05.605Z,22.35
2022-12-24T22:45:32.673Z,23.15
2022-12-24T22:47:59.718Z,23.15
2022-12-24T22:50:26.890Z,23.25
2022-12-24T22:52:54.071Z,23.17
2022-12-24T22:55:21.598Z,22.92
2022-12-24T22:57:48.875Z,23.23
2022-12-24T23:00:36.215Z,23.33
2022-12-24T23:03:03.962Z,21.83
2022-12-24T23:05:31.115Z,21.20
2022-12-24T23:07:58.239Z,21.25
2022-12-24T23:10:25.264Z,21.33
2022-12-24T23:13:14.800Z,21.60
2022-12-24T23:15:42.687Z,21.63
2022-12-24T23:18:10.541Z,21.60
2022-12-24T23:20:45.337Z,22.77
2022-12-24T23:23:13.130Z,21.23
2022-12-24T23:25:40.148Z,21.70
2022-12-24T23:28:07.244Z,20.92
2022-12-24T23:30:34.607Z,22.20
2022-12-24T23:33:01.604Z,21.90
2022-12-24T23:35:28.589Z,20.88
2022-12-24T23:37:55.523Z,21.45
2022-12-24T23:40:22.644Z,22.00
2022-12-24T23:42:49.771Z,20.92
2022-12-24T23:45:16.968Z,22.23
2022-12-24T23:47:44.056Z,22.05
2022-12-24T23:50:11.711Z,21.58
2022-12-24T23:52:38.795Z,21.23
2022-12-24T23:55:06.441Z,21.23
2022-12-24T23:57:33.433Z,21.30
